Overview Statistics Trail Chart Weather Telemetry Raw packets
 

This is the latest recevied weather packets stored in our database for station/object VK5GR-12. If no packets are shown the sender has not sent any weather packets the latest 10 day(s).

<< 27 28 29 30 31 32 33 >>
Time Temp. Humidity Pressure Rain* Wind** Luminosity Snow
1788019101 10.56° C 71% 1033.5 hPa 0 mm - 0 W/m² -
1788018196 11.11° C 71% 1033.6 hPa 0 mm - 0 W/m² -
1788017297 11.11° C 71% 1033.5 hPa 0 mm - 0 W/m² -
1788016395 11.11° C 70% 1033.4 hPa 0 mm - 0 W/m² -
1788015496 11.67° C 70% 1033.6 hPa 0 mm - 0 W/m² -
1788014595 12.22° C 68% 1033.5 hPa 0 mm - 0 W/m² -
1788013692 12.22° C 66% 1033.3 hPa 0 mm - 0 W/m² -
1788012791 12.78° C 67% 1033.4 hPa 0 mm - 0 W/m² -
1788011891 12.78° C 66% 1033.5 hPa 0 mm - 0 W/m² -
1788010989 12.78° C 67% 1033.4 hPa 0 mm - 0 W/m² -
1788010090 12.78° C 69% 1033.7 hPa 0 mm - 0 W/m² -
1788009190 12.78° C 69% 1033.6 hPa 0 mm - 0 W/m² -
1788008290 13.33° C 69% 1033.6 hPa 0 mm - 0 W/m² -
1788007388 13.33° C 68% 1033.6 hPa 0 mm - 0 W/m² -
1788006488 13.33° C 70% 1034 hPa 0 mm - 0 W/m² -
1788005588 13.33° C 71% 1033.9 hPa 0 mm - 0 W/m² -
1788004685 13.89° C 73% 1034 hPa 0 mm - 0 W/m² -
1788003792 13.89° C 73% 1033.9 hPa 0 mm - 0 W/m² -
1788002879 13.89° C 74% 1033.7 hPa 0 mm - 0 W/m² -
1788001975 13.89° C 73% 1033.7 hPa 0 mm - 0 W/m² -
1788001072 13.89° C 73% 1033.7 hPa 0 mm - 0 W/m² -
1788000168 13.89° C 74% 1033.5 hPa 0 mm - 0 W/m² -
1787999263 13.89° C 74% 1033.7 hPa 0 mm - 0 W/m² -
1787998362 14.44° C 75% 1033.7 hPa 0 mm - 0 W/m² -
1787997460 14.44° C 72% 1033.4 hPa 0 mm - 0 W/m² -

* Rain latest hour (hover to see other rain measurements)
** Current wind speed in m/s (hover to see current wind gust speed)